sensor_id;sensor_type;location;lat;lon;timestamp;P1;durP1;ratioP1;P2;durP2;ratioP2
15383;SDS011;7790;53.022;12.968;2022-07-24T00:01:48;3.27;;;2.47;;
15383;SDS011;7790;53.022;12.968;2022-07-24T00:05:49;4.43;;;3.00;;
15383;SDS011;7790;53.022;12.968;2022-07-24T00:09:50;4.93;;;3.80;;
15383;SDS011;7790;53.022;12.968;2022-07-24T00:13:51;4.03;;;3.63;;
15383;SDS011;7790;53.022;12.968;2022-07-24T00:17:52;7.00;;;4.30;;
15383;SDS011;7790;53.022;12.968;2022-07-24T00:21:53;6.37;;;5.10;;
15383;SDS011;7790;53.022;12.968;2022-07-24T00:25:54;6.50;;;4.60;;
15383;SDS011;7790;53.022;12.968;2022-07-24T00:29:55;7.37;;;5.40;;
15383;SDS011;7790;53.022;12.968;2022-07-24T00:33:56;7.33;;;5.20;;
15383;SDS011;7790;53.022;12.968;2022-07-24T00:37:57;3.70;;;2.80;;
15383;SDS011;7790;53.022;12.968;2022-07-24T00:41:58;4.40;;;3.13;;
15383;SDS011;7790;53.022;12.968;2022-07-24T00:45:58;5.20;;;3.53;;
15383;SDS011;7790;53.022;12.968;2022-07-24T00:49:59;3.30;;;2.97;;
15383;SDS011;7790;53.022;12.968;2022-07-24T00:54:04;3.17;;;2.13;;
15383;SDS011;7790;53.022;12.968;2022-07-24T00:58:06;2.73;;;2.53;;
15383;SDS011;7790;53.022;12.968;2022-07-24T01:02:07;5.93;;;4.53;;
15383;SDS011;7790;53.022;12.968;2022-07-24T01:06:07;5.27;;;3.17;;
15383;SDS011;7790;53.022;12.968;2022-07-24T01:10:09;6.80;;;5.47;;
15383;SDS011;7790;53.022;12.968;2022-07-24T01:14:11;7.53;;;5.50;;
15383;SDS011;7790;53.022;12.968;2022-07-24T01:18:12;11.33;;;7.20;;
15383;SDS011;7790;53.022;12.968;2022-07-24T01:22:13;9.73;;;7.47;;
15383;SDS011;7790;53.022;12.968;2022-07-24T01:26:13;4.67;;;3.60;;
15383;SDS011;7790;53.022;12.968;2022-07-24T01:30:14;4.50;;;4.10;;
15383;SDS011;7790;53.022;12.968;2022-07-24T01:34:16;5.77;;;4.07;;
15383;SDS011;7790;53.022;12.968;2022-07-24T01:38:17;5.97;;;3.70;;
15383;SDS011;7790;53.022;12.968;2022-07-24T01:42:18;5.50;;;4.07;;
15383;SDS011;7790;53.022;12.968;2022-07-24T01:46:20;7.10;;;4.97;;
15383;SDS011;7790;53.022;12.968;2022-07-24T01:50:21;8.23;;;4.00;;
15383;SDS011;7790;53.022;12.968;2022-07-24T01:54:22;3.93;;;3.03;;
15383;SDS011;7790;53.022;12.968;2022-07-24T01:58:23;3.77;;;2.90;;
15383;SDS011;7790;53.022;12.968;2022-07-24T02:02:24;3.27;;;2.97;;
15383;SDS011;7790;53.022;12.968;2022-07-24T02:06:25;3.10;;;2.80;;
15383;SDS011;7790;53.022;12.968;2022-07-24T02:10:27;5.27;;;3.87;;
15383;SDS011;7790;53.022;12.968;2022-07-24T02:14:28;5.70;;;3.40;;
15383;SDS011;7790;53.022;12.968;2022-07-24T02:18:29;4.20;;;2.67;;
15383;SDS011;7790;53.022;12.968;2022-07-24T02:22:30;6.10;;;3.93;;
15383;SDS011;7790;53.022;12.968;2022-07-24T02:26:32;9.53;;;5.90;;
15383;SDS011;7790;53.022;12.968;2022-07-24T02:30:33;5.97;;;4.13;;
15383;SDS011;7790;53.022;12.968;2022-07-24T02:34:33;7.23;;;4.07;;
15383;SDS011;7790;53.022;12.968;2022-07-24T02:38:34;9.50;;;4.90;;
15383;SDS011;7790;53.022;12.968;2022-07-24T02:42:35;9.23;;;4.77;;
15383;SDS011;7790;53.022;12.968;2022-07-24T02:46:37;7.50;;;4.20;;
15383;SDS011;7790;53.022;12.968;2022-07-24T02:50:38;8.63;;;4.30;;
15383;SDS011;7790;53.022;12.968;2022-07-24T02:54:39;7.07;;;4.17;;
15383;SDS011;7790;53.022;12.968;2022-07-24T02:58:39;4.27;;;3.30;;
15383;SDS011;7790;53.022;12.968;2022-07-24T03:02:40;5.03;;;3.20;;
15383;SDS011;7790;53.022;12.968;2022-07-24T03:06:42;7.23;;;3.40;;
15383;SDS011;7790;53.022;12.968;2022-07-24T03:10:42;5.37;;;3.57;;
15383;SDS011;7790;53.022;12.968;2022-07-24T03:14:43;10.50;;;6.57;;
15383;SDS011;7790;53.022;12.968;2022-07-24T03:18:44;9.13;;;5.60;;
15383;SDS011;7790;53.022;12.968;2022-07-24T03:22:46;11.20;;;6.10;;
15383;SDS011;7790;53.022;12.968;2022-07-24T03:26:47;10.30;;;4.80;;
15383;SDS011;7790;53.022;12.968;2022-07-24T03:30:47;7.47;;;5.03;;
15383;SDS011;7790;53.022;12.968;2022-07-24T03:34:48;6.37;;;4.20;;
15383;SDS011;7790;53.022;12.968;2022-07-24T03:38:49;4.53;;;3.03;;
15383;SDS011;7790;53.022;12.968;2022-07-24T03:42:50;5.90;;;3.00;;
15383;SDS011;7790;53.022;12.968;2022-07-24T03:46:51;3.83;;;2.63;;
15383;SDS011;7790;53.022;12.968;2022-07-24T03:50:52;4.20;;;2.70;;
15383;SDS011;7790;53.022;12.968;2022-07-24T03:54:53;2.80;;;2.13;;
15383;SDS011;7790;53.022;12.968;2022-07-24T03:58:55;3.80;;;2.23;;
15383;SDS011;7790;53.022;12.968;2022-07-24T04:02:56;2.30;;;1.80;;
15383;SDS011;7790;53.022;12.968;2022-07-24T04:06:57;4.87;;;2.53;;
15383;SDS011;7790;53.022;12.968;2022-07-24T04:10:58;4.03;;;2.10;;
15383;SDS011;7790;53.022;12.968;2022-07-24T04:14:59;3.03;;;2.30;;
15383;SDS011;7790;53.022;12.968;2022-07-24T04:19:00;2.43;;;2.00;;
15383;SDS011;7790;53.022;12.968;2022-07-24T04:23:01;1.77;;;1.67;;
15383;SDS011;7790;53.022;12.968;2022-07-24T04:27:01;2.50;;;1.90;;
15383;SDS011;7790;53.022;12.968;2022-07-24T04:31:03;1.60;;;1.50;;
15383;SDS011;7790;53.022;12.968;2022-07-24T04:35:04;2.07;;;1.63;;
15383;SDS011;7790;53.022;12.968;2022-07-24T04:39:05;1.40;;;1.30;;
15383;SDS011;7790;53.022;12.968;2022-07-24T04:43:06;2.07;;;1.30;;
15383;SDS011;7790;53.022;12.968;2022-07-24T04:47:07;1.63;;;1.37;;
15383;SDS011;7790;53.022;12.968;2022-07-24T04:51:08;1.57;;;1.47;;
15383;SDS011;7790;53.022;12.968;2022-07-24T04:55:09;2.20;;;1.40;;
15383;SDS011;7790;53.022;12.968;2022-07-24T04:59:10;1.53;;;1.43;;
15383;SDS011;7790;53.022;12.968;2022-07-24T05:03:11;4.33;;;1.80;;
15383;SDS011;7790;53.022;12.968;2022-07-24T05:07:12;2.07;;;1.70;;
15383;SDS011;7790;53.022;12.968;2022-07-24T05:11:13;3.10;;;1.70;;
15383;SDS011;7790;53.022;12.968;2022-07-24T05:15:15;3.50;;;2.20;;
15383;SDS011;7790;53.022;12.968;2022-07-24T05:19:16;2.07;;;1.90;;
15383;SDS011;7790;53.022;12.968;2022-07-24T05:23:16;2.83;;;1.90;;
15383;SDS011;7790;53.022;12.968;2022-07-24T05:27:17;1.87;;;1.63;;
15383;SDS011;7790;53.022;12.968;2022-07-24T05:31:18;3.17;;;1.83;;
15383;SDS011;7790;53.022;12.968;2022-07-24T05:35:19;4.17;;;2.20;;
15383;SDS011;7790;53.022;12.968;2022-07-24T05:39:20;2.80;;;2.20;;
15383;SDS011;7790;53.022;12.968;2022-07-24T05:43:21;2.77;;;1.80;;
15383;SDS011;7790;53.022;12.968;2022-07-24T05:47:22;4.77;;;2.10;;
15383;SDS011;7790;53.022;12.968;2022-07-24T05:51:24;5.97;;;2.10;;
15383;SDS011;7790;53.022;12.968;2022-07-24T05:55:25;4.50;;;2.00;;
15383;SDS011;7790;53.022;12.968;2022-07-24T05:59:26;2.37;;;1.57;;
15383;SDS011;7790;53.022;12.968;2022-07-24T06:03:27;8.83;;;2.00;;
15383;SDS011;7790;53.022;12.968;2022-07-24T06:07:28;4.03;;;1.80;;
15383;SDS011;7790;53.022;12.968;2022-07-24T06:11:29;2.53;;;1.73;;
15383;SDS011;7790;53.022;12.968;2022-07-24T06:15:30;4.07;;;1.90;;
15383;SDS011;7790;53.022;12.968;2022-07-24T06:19:31;2.57;;;2.03;;
15383;SDS011;7790;53.022;12.968;2022-07-24T06:23:32;2.33;;;1.63;;
15383;SDS011;7790;53.022;12.968;2022-07-24T06:27:33;4.13;;;1.80;;
15383;SDS011;7790;53.022;12.968;2022-07-24T06:31:34;3.37;;;1.80;;
15383;SDS011;7790;53.022;12.968;2022-07-24T06:35:35;2.93;;;1.60;;
15383;SDS011;7790;53.022;12.968;2022-07-24T06:39:36;5.33;;;1.80;;
15383;SDS011;7790;53.022;12.968;2022-07-24T06:43:36;3.10;;;1.80;;
15383;SDS011;7790;53.022;12.968;2022-07-24T06:47:37;5.70;;;1.90;;
15383;SDS011;7790;53.022;12.968;2022-07-24T06:51:39;2.27;;;2.07;;
15383;SDS011;7790;53.022;12.968;2022-07-24T06:55:40;3.17;;;2.80;;
15383;SDS011;7790;53.022;12.968;2022-07-24T06:59:40;3.67;;;2.70;;
15383;SDS011;7790;53.022;12.968;2022-07-24T07:03:41;3.80;;;2.90;;
15383;SDS011;7790;53.022;12.968;2022-07-24T07:07:43;2.60;;;2.40;;
15383;SDS011;7790;53.022;12.968;2022-07-24T07:11:44;4.13;;;2.37;;
15383;SDS011;7790;53.022;12.968;2022-07-24T07:15:44;3.83;;;2.30;;
15383;SDS011;7790;53.022;12.968;2022-07-24T07:19:45;5.30;;;2.37;;
15383;SDS011;7790;53.022;12.968;2022-07-24T07:23:46;2.30;;;2.10;;
15383;SDS011;7790;53.022;12.968;2022-07-24T07:27:47;3.87;;;2.50;;
15383;SDS011;7790;53.022;12.968;2022-07-24T07:31:48;5.37;;;2.37;;
15383;SDS011;7790;53.022;12.968;2022-07-24T07:35:49;3.13;;;2.23;;
15383;SDS011;7790;53.022;12.968;2022-07-24T07:39:50;3.47;;;2.27;;
15383;SDS011;7790;53.022;12.968;2022-07-24T07:43:51;2.17;;;1.77;;
15383;SDS011;7790;53.022;12.968;2022-07-24T07:47:52;2.77;;;1.70;;
15383;SDS011;7790;53.022;12.968;2022-07-24T07:51:52;2.07;;;1.60;;
15383;SDS011;7790;53.022;12.968;2022-07-24T07:55:53;2.13;;;1.50;;
15383;SDS011;7790;53.022;12.968;2022-07-24T07:59:54;1.57;;;1.43;;
15383;SDS011;7790;53.022;12.968;2022-07-24T08:03:55;1.73;;;1.40;;
15383;SDS011;7790;53.022;12.968;2022-07-24T08:07:56;1.93;;;1.23;;
15383;SDS011;7790;53.022;12.968;2022-07-24T08:11:57;3.47;;;1.40;;
15383;SDS011;7790;53.022;12.968;2022-07-24T08:15:58;1.90;;;1.30;;
15383;SDS011;7790;53.022;12.968;2022-07-24T08:19:59;1.77;;;1.40;;
15383;SDS011;7790;53.022;12.968;2022-07-24T08:24:00;2.23;;;1.30;;
15383;SDS011;7790;53.022;12.968;2022-07-24T08:28:01;2.60;;;1.33;;
15383;SDS011;7790;53.022;12.968;2022-07-24T08:32:02;2.00;;;1.27;;
15383;SDS011;7790;53.022;12.968;2022-07-24T08:36:03;3.27;;;1.07;;
15383;SDS011;7790;53.022;12.968;2022-07-24T08:40:05;1.30;;;1.20;;
15383;SDS011;7790;53.022;12.968;2022-07-24T08:44:07;2.30;;;1.10;;
15383;SDS011;7790;53.022;12.968;2022-07-24T08:48:08;2.53;;;1.10;;
15383;SDS011;7790;53.022;12.968;2022-07-24T08:52:10;1.90;;;1.00;;
15383;SDS011;7790;53.022;12.968;2022-07-24T08:56:14;1.77;;;1.40;;
15383;SDS011;7790;53.022;12.968;2022-07-24T09:00:16;2.40;;;1.40;;
15383;SDS011;7790;53.022;12.968;2022-07-24T09:09:01;2.70;;;1.47;;
15383;SDS011;7790;53.022;12.968;2022-07-24T09:13:13;1.97;;;1.50;;
15383;SDS011;7790;53.022;12.968;2022-07-24T09:17:18;1.47;;;1.30;;
15383;SDS011;7790;53.022;12.968;2022-07-24T09:21:20;3.57;;;1.10;;
15383;SDS011;7790;53.022;12.968;2022-07-24T09:29:23;3.07;;;1.23;;
15383;SDS011;7790;53.022;12.968;2022-07-24T09:33:25;1.37;;;1.10;;
15383;SDS011;7790;53.022;12.968;2022-07-24T09:37:26;2.07;;;1.40;;
15383;SDS011;7790;53.022;12.968;2022-07-24T09:41:28;2.33;;;1.37;;
15383;SDS011;7790;53.022;12.968;2022-07-24T09:45:29;1.20;;;1.10;;
15383;SDS011;7790;53.022;12.968;2022-07-24T09:49:49;2.00;;;1.20;;
15383;SDS011;7790;53.022;12.968;2022-07-24T09:53:55;1.40;;;1.20;;
15383;SDS011;7790;53.022;12.968;2022-07-24T09:58:00;1.33;;;1.23;;
15383;SDS011;7790;53.022;12.968;2022-07-24T10:02:01;5.90;;;1.30;;
15383;SDS011;7790;53.022;12.968;2022-07-24T10:06:05;1.33;;;1.20;;
15383;SDS011;7790;53.022;12.968;2022-07-24T10:10:08;3.13;;;1.23;;
15383;SDS011;7790;53.022;12.968;2022-07-24T10:14:09;1.00;;;1.00;;
15383;SDS011;7790;53.022;12.968;2022-07-24T10:18:13;2.47;;;1.20;;
15383;SDS011;7790;53.022;12.968;2022-07-24T10:22:18;1.77;;;1.20;;
15383;SDS011;7790;53.022;12.968;2022-07-24T10:26:42;3.27;;;1.17;;
15383;SDS011;7790;53.022;12.968;2022-07-24T10:30:42;2.03;;;1.23;;
15383;SDS011;7790;53.022;12.968;2022-07-24T10:34:47;1.53;;;1.17;;
15383;SDS011;7790;53.022;12.968;2022-07-24T10:38:59;3.97;;;1.20;;
15383;SDS011;7790;53.022;12.968;2022-07-24T10:47:09;5.20;;;1.40;;
15383;SDS011;7790;53.022;12.968;2022-07-24T10:51:16;3.37;;;1.33;;
15383;SDS011;7790;53.022;12.968;2022-07-24T10:55:28;3.17;;;1.50;;
15383;SDS011;7790;53.022;12.968;2022-07-24T10:59:33;1.37;;;0.97;;
15383;SDS011;7790;53.022;12.968;2022-07-24T11:03:36;1.43;;;0.83;;
15383;SDS011;7790;53.022;12.968;2022-07-24T11:07:36;1.57;;;1.03;;
15383;SDS011;7790;53.022;12.968;2022-07-24T11:11:41;1.87;;;0.90;;
15383;SDS011;7790;53.022;12.968;2022-07-24T11:16:12;1.67;;;1.10;;
15383;SDS011;7790;53.022;12.968;2022-07-24T11:20:19;3.03;;;1.20;;
15383;SDS011;7790;53.022;12.968;2022-07-24T11:24:21;1.73;;;1.10;;
15383;SDS011;7790;53.022;12.968;2022-07-24T11:28:24;2.43;;;1.20;;
15383;SDS011;7790;53.022;12.968;2022-07-24T11:32:25;1.07;;;0.90;;
15383;SDS011;7790;53.022;12.968;2022-07-24T11:36:29;1.10;;;1.03;;
15383;SDS011;7790;53.022;12.968;2022-07-24T11:40:30;1.60;;;1.10;;
15383;SDS011;7790;53.022;12.968;2022-07-24T11:44:32;1.57;;;1.00;;
15383;SDS011;7790;53.022;12.968;2022-07-24T11:48:33;1.17;;;1.07;;
15383;SDS011;7790;53.022;12.968;2022-07-24T11:52:35;1.10;;;1.00;;
15383;SDS011;7790;53.022;12.968;2022-07-24T11:56:40;1.20;;;1.07;;
15383;SDS011;7790;53.022;12.968;2022-07-24T12:00:41;1.40;;;1.13;;
15383;SDS011;7790;53.022;12.968;2022-07-24T12:04:42;0.93;;;0.93;;
15383;SDS011;7790;53.022;12.968;2022-07-24T12:08:44;1.00;;;0.93;;
15383;SDS011;7790;53.022;12.968;2022-07-24T12:12:45;1.80;;;1.10;;
15383;SDS011;7790;53.022;12.968;2022-07-24T12:16:52;3.20;;;1.17;;
15383;SDS011;7790;53.022;12.968;2022-07-24T12:21:02;1.27;;;1.00;;
15383;SDS011;7790;53.022;12.968;2022-07-24T12:25:03;1.83;;;1.00;;
15383;SDS011;7790;53.022;12.968;2022-07-24T12:29:08;3.57;;;1.50;;
15383;SDS011;7790;53.022;12.968;2022-07-24T12:37:18;2.53;;;1.27;;
15383;SDS011;7790;53.022;12.968;2022-07-24T12:41:21;2.47;;;1.20;;
15383;SDS011;7790;53.022;12.968;2022-07-24T12:45:23;4.97;;;1.63;;
15383;SDS011;7790;53.022;12.968;2022-07-24T12:49:24;2.00;;;1.13;;
15383;SDS011;7790;53.022;12.968;2022-07-24T12:53:43;1.47;;;1.23;;
15383;SDS011;7790;53.022;12.968;2022-07-24T12:57:44;1.40;;;1.30;;
15383;SDS011;7790;53.022;12.968;2022-07-24T13:01:52;1.27;;;1.20;;
15383;SDS011;7790;53.022;12.968;2022-07-24T13:05:55;2.63;;;1.50;;
15383;SDS011;7790;53.022;12.968;2022-07-24T13:09:56;3.37;;;1.40;;
15383;SDS011;7790;53.022;12.968;2022-07-24T13:13:57;1.87;;;1.23;;
15383;SDS011;7790;53.022;12.968;2022-07-24T13:17:57;3.03;;;1.33;;
15383;SDS011;7790;53.022;12.968;2022-07-24T13:21:58;1.30;;;1.20;;
15383;SDS011;7790;53.022;12.968;2022-07-24T13:25:59;1.30;;;1.20;;
15383;SDS011;7790;53.022;12.968;2022-07-24T13:30:00;1.93;;;1.17;;
15383;SDS011;7790;53.022;12.968;2022-07-24T13:34:03;2.13;;;1.30;;
15383;SDS011;7790;53.022;12.968;2022-07-24T13:38:04;1.70;;;1.20;;
15383;SDS011;7790;53.022;12.968;2022-07-24T13:42:05;3.27;;;1.40;;
15383;SDS011;7790;53.022;12.968;2022-07-24T13:46:06;1.37;;;1.00;;
15383;SDS011;7790;53.022;12.968;2022-07-24T13:50:07;1.53;;;1.43;;
15383;SDS011;7790;53.022;12.968;2022-07-24T13:54:08;1.30;;;1.20;;
15383;SDS011;7790;53.022;12.968;2022-07-24T13:58:11;1.67;;;1.20;;
15383;SDS011;7790;53.022;12.968;2022-07-24T14:02:12;1.50;;;1.40;;
15383;SDS011;7790;53.022;12.968;2022-07-24T14:06:15;1.30;;;1.20;;
15383;SDS011;7790;53.022;12.968;2022-07-24T14:10:16;1.30;;;1.20;;
15383;SDS011;7790;53.022;12.968;2022-07-24T14:14:16;3.53;;;1.80;;
15383;SDS011;7790;53.022;12.968;2022-07-24T14:18:17;1.50;;;1.40;;
15383;SDS011;7790;53.022;12.968;2022-07-24T14:22:18;1.53;;;1.20;;
15383;SDS011;7790;53.022;12.968;2022-07-24T14:26:19;1.90;;;1.70;;
15383;SDS011;7790;53.022;12.968;2022-07-24T14:30:20;1.67;;;1.57;;
15383;SDS011;7790;53.022;12.968;2022-07-24T14:34:20;1.60;;;1.50;;
15383;SDS011;7790;53.022;12.968;2022-07-24T14:38:21;1.70;;;1.60;;
15383;SDS011;7790;53.022;12.968;2022-07-24T14:42:22;1.60;;;1.50;;
15383;SDS011;7790;53.022;12.968;2022-07-24T14:46:23;1.70;;;1.60;;
15383;SDS011;7790;53.022;12.968;2022-07-24T14:50:24;1.80;;;1.70;;
15383;SDS011;7790;53.022;12.968;2022-07-24T14:54:25;1.50;;;1.40;;
15383;SDS011;7790;53.022;12.968;2022-07-24T14:58:26;1.70;;;1.60;;
15383;SDS011;7790;53.022;12.968;2022-07-24T15:02:26;1.80;;;1.70;;
15383;SDS011;7790;53.022;12.968;2022-07-24T15:06:28;1.50;;;1.40;;
15383;SDS011;7790;53.022;12.968;2022-07-24T15:10:29;1.60;;;1.50;;
15383;SDS011;7790;53.022;12.968;2022-07-24T15:14:29;3.07;;;1.80;;
15383;SDS011;7790;53.022;12.968;2022-07-24T15:18:33;1.70;;;1.60;;
15383;SDS011;7790;53.022;12.968;2022-07-24T15:22:34;1.90;;;1.80;;
15383;SDS011;7790;53.022;12.968;2022-07-24T15:26:35;2.23;;;1.63;;
15383;SDS011;7790;53.022;12.968;2022-07-24T15:30:36;1.77;;;1.67;;
15383;SDS011;7790;53.022;12.968;2022-07-24T15:34:37;1.63;;;1.50;;
15383;SDS011;7790;53.022;12.968;2022-07-24T15:38:38;2.27;;;2.13;;
15383;SDS011;7790;53.022;12.968;2022-07-24T15:42:39;1.67;;;1.57;;
15383;SDS011;7790;53.022;12.968;2022-07-24T15:46:40;1.63;;;1.53;;
15383;SDS011;7790;53.022;12.968;2022-07-24T15:50:43;2.00;;;1.90;;
15383;SDS011;7790;53.022;12.968;2022-07-24T15:54:43;3.27;;;2.00;;
15383;SDS011;7790;53.022;12.968;2022-07-24T15:58:44;2.10;;;1.63;;
15383;SDS011;7790;53.022;12.968;2022-07-24T16:02:45;2.10;;;1.90;;
15383;SDS011;7790;53.022;12.968;2022-07-24T16:06:46;2.20;;;2.00;;
15383;SDS011;7790;53.022;12.968;2022-07-24T16:10:47;1.93;;;1.70;;
15383;SDS011;7790;53.022;12.968;2022-07-24T16:14:48;2.87;;;1.63;;
15383;SDS011;7790;53.022;12.968;2022-07-24T16:18:49;1.77;;;1.67;;
15383;SDS011;7790;53.022;12.968;2022-07-24T16:22:50;1.80;;;1.70;;
15383;SDS011;7790;53.022;12.968;2022-07-24T16:26:51;1.90;;;1.73;;
15383;SDS011;7790;53.022;12.968;2022-07-24T16:30:52;1.80;;;1.60;;
15383;SDS011;7790;53.022;12.968;2022-07-24T16:34:53;1.97;;;1.80;;
15383;SDS011;7790;53.022;12.968;2022-07-24T16:38:54;2.10;;;1.90;;
15383;SDS011;7790;53.022;12.968;2022-07-24T16:42:55;2.00;;;1.80;;
15383;SDS011;7790;53.022;12.968;2022-07-24T16:46:56;2.17;;;1.83;;
15383;SDS011;7790;53.022;12.968;2022-07-24T16:50:57;2.30;;;1.70;;
15383;SDS011;7790;53.022;12.968;2022-07-24T16:54:58;3.20;;;1.90;;
15383;SDS011;7790;53.022;12.968;2022-07-24T16:58:59;2.50;;;1.97;;
15383;SDS011;7790;53.022;12.968;2022-07-24T17:02:59;3.43;;;1.90;;
15383;SDS011;7790;53.022;12.968;2022-07-24T17:07:00;3.00;;;2.00;;
15383;SDS011;7790;53.022;12.968;2022-07-24T17:11:01;4.67;;;1.93;;
15383;SDS011;7790;53.022;12.968;2022-07-24T17:15:05;21.23;;;2.97;;
15383;SDS011;7790;53.022;12.968;2022-07-24T17:19:07;11.27;;;2.63;;
15383;SDS011;7790;53.022;12.968;2022-07-24T17:23:09;12.77;;;3.20;;
15383;SDS011;7790;53.022;12.968;2022-07-24T17:27:11;13.97;;;2.80;;
15383;SDS011;7790;53.022;12.968;2022-07-24T17:31:12;19.93;;;3.10;;
15383;SDS011;7790;53.022;12.968;2022-07-24T17:35:13;15.00;;;3.03;;
15383;SDS011;7790;53.022;12.968;2022-07-24T17:39:14;9.80;;;2.30;;
15383;SDS011;7790;53.022;12.968;2022-07-24T17:43:14;8.83;;;2.57;;
15383;SDS011;7790;53.022;12.968;2022-07-24T17:47:16;12.53;;;2.30;;
15383;SDS011;7790;53.022;12.968;2022-07-24T17:51:17;12.60;;;2.53;;
15383;SDS011;7790;53.022;12.968;2022-07-24T17:55:18;14.13;;;2.70;;
15383;SDS011;7790;53.022;12.968;2022-07-24T17:59:18;19.03;;;3.10;;
15383;SDS011;7790;53.022;12.968;2022-07-24T18:03:19;16.33;;;3.40;;
15383;SDS011;7790;53.022;12.968;2022-07-24T18:07:20;24.87;;;3.33;;
15383;SDS011;7790;53.022;12.968;2022-07-24T18:11:21;25.97;;;3.47;;
15383;SDS011;7790;53.022;12.968;2022-07-24T18:15:22;17.93;;;3.03;;
15383;SDS011;7790;53.022;12.968;2022-07-24T18:19:23;20.77;;;3.63;;
15383;SDS011;7790;53.022;12.968;2022-07-24T18:23:24;13.30;;;3.00;;
15383;SDS011;7790;53.022;12.968;2022-07-24T18:27:24;23.13;;;3.30;;
15383;SDS011;7790;53.022;12.968;2022-07-24T18:31:25;15.40;;;3.30;;
15383;SDS011;7790;53.022;12.968;2022-07-24T18:35:26;20.03;;;3.13;;
15383;SDS011;7790;53.022;12.968;2022-07-24T18:39:27;18.70;;;3.10;;
15383;SDS011;7790;53.022;12.968;2022-07-24T18:43:28;25.53;;;3.27;;
15383;SDS011;7790;53.022;12.968;2022-07-24T18:47:28;18.03;;;3.57;;
15383;SDS011;7790;53.022;12.968;2022-07-24T18:51:29;15.07;;;3.30;;
15383;SDS011;7790;53.022;12.968;2022-07-24T18:55:30;18.50;;;3.17;;
15383;SDS011;7790;53.022;12.968;2022-07-24T18:59:31;19.97;;;3.70;;
15383;SDS011;7790;53.022;12.968;2022-07-24T19:03:32;13.40;;;3.30;;
15383;SDS011;7790;53.022;12.968;2022-07-24T19:07:33;17.27;;;3.23;;
15383;SDS011;7790;53.022;12.968;2022-07-24T19:11:33;9.13;;;2.63;;
15383;SDS011;7790;53.022;12.968;2022-07-24T19:15:35;11.27;;;2.80;;
15383;SDS011;7790;53.022;12.968;2022-07-24T19:19:35;11.63;;;3.10;;
15383;SDS011;7790;53.022;12.968;2022-07-24T19:23:36;10.77;;;2.37;;
15383;SDS011;7790;53.022;12.968;2022-07-24T19:27:37;7.40;;;2.90;;
15383;SDS011;7790;53.022;12.968;2022-07-24T19:31:38;9.17;;;2.67;;
15383;SDS011;7790;53.022;12.968;2022-07-24T19:35:39;7.57;;;2.57;;
15383;SDS011;7790;53.022;12.968;2022-07-24T19:39:40;8.57;;;2.97;;
15383;SDS011;7790;53.022;12.968;2022-07-24T19:43:41;10.13;;;2.40;;
15383;SDS011;7790;53.022;12.968;2022-07-24T19:47:42;9.83;;;2.53;;
15383;SDS011;7790;53.022;12.968;2022-07-24T19:51:43;8.47;;;2.60;;
15383;SDS011;7790;53.022;12.968;2022-07-24T19:55:43;7.20;;;2.60;;
15383;SDS011;7790;53.022;12.968;2022-07-24T19:59:44;5.50;;;2.43;;
15383;SDS011;7790;53.022;12.968;2022-07-24T20:03:45;9.17;;;2.40;;
15383;SDS011;7790;53.022;12.968;2022-07-24T20:07:47;8.10;;;2.40;;
15383;SDS011;7790;53.022;12.968;2022-07-24T20:11:48;9.83;;;2.40;;
15383;SDS011;7790;53.022;12.968;2022-07-24T20:15:49;7.20;;;2.80;;
15383;SDS011;7790;53.022;12.968;2022-07-24T20:19:50;7.60;;;2.50;;
15383;SDS011;7790;53.022;12.968;2022-07-24T20:23:51;5.33;;;1.83;;
15383;SDS011;7790;53.022;12.968;2022-07-24T20:27:51;9.27;;;2.17;;
15383;SDS011;7790;53.022;12.968;2022-07-24T20:31:52;6.53;;;2.20;;
15383;SDS011;7790;53.022;12.968;2022-07-24T20:35:53;9.70;;;2.40;;
15383;SDS011;7790;53.022;12.968;2022-07-24T20:39:54;5.27;;;2.40;;
15383;SDS011;7790;53.022;12.968;2022-07-24T20:43:55;7.37;;;2.10;;
15383;SDS011;7790;53.022;12.968;2022-07-24T20:47:55;5.97;;;2.87;;
15383;SDS011;7790;53.022;12.968;2022-07-24T20:51:56;5.00;;;2.17;;
15383;SDS011;7790;53.022;12.968;2022-07-24T20:55:57;7.77;;;2.10;;
15383;SDS011;7790;53.022;12.968;2022-07-24T20:59:58;4.43;;;2.30;;
15383;SDS011;7790;53.022;12.968;2022-07-24T21:03:59;6.93;;;2.30;;
15383;SDS011;7790;53.022;12.968;2022-07-24T21:07:59;3.10;;;1.80;;
15383;SDS011;7790;53.022;12.968;2022-07-24T21:12:00;5.43;;;2.40;;
15383;SDS011;7790;53.022;12.968;2022-07-24T21:16:01;3.13;;;2.30;;
15383;SDS011;7790;53.022;12.968;2022-07-24T21:20:02;5.60;;;2.30;;
15383;SDS011;7790;53.022;12.968;2022-07-24T21:24:03;2.37;;;1.93;;
15383;SDS011;7790;53.022;12.968;2022-07-24T21:28:05;4.63;;;2.20;;
15383;SDS011;7790;53.022;12.968;2022-07-24T21:32:06;4.17;;;2.20;;
15383;SDS011;7790;53.022;12.968;2022-07-24T21:36:07;3.23;;;2.07;;
15383;SDS011;7790;53.022;12.968;2022-07-24T21:40:07;3.40;;;2.10;;
15383;SDS011;7790;53.022;12.968;2022-07-24T21:44:08;4.73;;;2.13;;
15383;SDS011;7790;53.022;12.968;2022-07-24T21:48:09;3.23;;;2.13;;
15383;SDS011;7790;53.022;12.968;2022-07-24T21:52:10;3.90;;;2.07;;
15383;SDS011;7790;53.022;12.968;2022-07-24T21:56:11;2.27;;;2.00;;
15383;SDS011;7790;53.022;12.968;2022-07-24T22:00:12;3.00;;;1.90;;
15383;SDS011;7790;53.022;12.968;2022-07-24T22:04:13;2.80;;;2.00;;
15383;SDS011;7790;53.022;12.968;2022-07-24T22:08:14;5.23;;;2.00;;
15383;SDS011;7790;53.022;12.968;2022-07-24T22:12:15;3.87;;;2.00;;
15383;SDS011;7790;53.022;12.968;2022-07-24T22:16:16;3.53;;;2.10;;
15383;SDS011;7790;53.022;12.968;2022-07-24T22:20:17;4.27;;;2.20;;
15383;SDS011;7790;53.022;12.968;2022-07-24T22:24:18;2.63;;;2.00;;
15383;SDS011;7790;53.022;12.968;2022-07-24T22:28:19;4.17;;;2.33;;
15383;SDS011;7790;53.022;12.968;2022-07-24T22:32:20;2.43;;;2.03;;
15383;SDS011;7790;53.022;12.968;2022-07-24T22:36:22;6.33;;;2.20;;
15383;SDS011;7790;53.022;12.968;2022-07-24T22:40:27;2.87;;;2.10;;
15383;SDS011;7790;53.022;12.968;2022-07-24T22:44:28;8.30;;;2.13;;
15383;SDS011;7790;53.022;12.968;2022-07-24T22:48:29;4.53;;;2.37;;
15383;SDS011;7790;53.022;12.968;2022-07-24T22:52:31;2.50;;;2.10;;
15383;SDS011;7790;53.022;12.968;2022-07-24T22:56:32;3.70;;;2.33;;
15383;SDS011;7790;53.022;12.968;2022-07-24T23:00:34;3.83;;;2.10;;
15383;SDS011;7790;53.022;12.968;2022-07-24T23:04:35;5.13;;;2.43;;
15383;SDS011;7790;53.022;12.968;2022-07-24T23:08:36;5.20;;;2.37;;
15383;SDS011;7790;53.022;12.968;2022-07-24T23:12:37;3.57;;;2.10;;
15383;SDS011;7790;53.022;12.968;2022-07-24T23:16:38;3.20;;;2.10;;
15383;SDS011;7790;53.022;12.968;2022-07-24T23:20:39;4.63;;;2.27;;
15383;SDS011;7790;53.022;12.968;2022-07-24T23:24:40;3.13;;;1.97;;
15383;SDS011;7790;53.022;12.968;2022-07-24T23:28:40;4.37;;;2.17;;
15383;SDS011;7790;53.022;12.968;2022-07-24T23:32:41;6.17;;;2.27;;
15383;SDS011;7790;53.022;12.968;2022-07-24T23:36:42;3.33;;;2.50;;
15383;SDS011;7790;53.022;12.968;2022-07-24T23:40:43;3.63;;;1.90;;
15383;SDS011;7790;53.022;12.968;2022-07-24T23:44:44;2.77;;;2.13;;
15383;SDS011;7790;53.022;12.968;2022-07-24T23:48:45;2.23;;;2.13;;
15383;SDS011;7790;53.022;12.968;2022-07-24T23:52:46;2.60;;;2.13;;
15383;SDS011;7790;53.022;12.968;2022-07-24T23:56:47;3.23;;;1.90;;
